createdAt,value
2019-05-19T00:02:06.875Z,88.01
2019-05-19T00:04:34.063Z,88.02
2019-05-19T00:07:01.539Z,88.18
2019-05-19T00:09:28.552Z,88.49
2019-05-19T00:11:55.549Z,88.47
2019-05-19T00:14:23.849Z,88.28
2019-05-19T00:16:50.932Z,88.11
2019-05-19T00:19:26.431Z,88.24
2019-05-19T00:21:50.280Z,88.52
2019-05-19T00:24:17.882Z,88.41
2019-05-19T00:26:45.127Z,87.92
2019-05-19T00:29:12.043Z,87.95
2019-05-19T00:31:39.075Z,88.14
2019-05-19T00:34:06.184Z,87.96
2019-05-19T00:36:33.789Z,87.43
2019-05-19T00:39:00.927Z,87.47
2019-05-19T00:41:29.253Z,87.86
2019-05-19T00:43:56.370Z,87.98
2019-05-19T00:46:24.270Z,87.57
2019-05-19T00:48:51.472Z,87.57
2019-05-19T00:51:19.738Z,87.65
2019-05-19T00:53:47.151Z,87.80
2019-05-19T00:56:15.566Z,87.70
2019-05-19T00:58:45.374Z,87.70
2019-05-19T01:01:12.790Z,87.51
2019-05-19T01:03:40.043Z,87.55
2019-05-19T01:06:07.667Z,87.54
2019-05-19T01:08:35.116Z,87.17
2019-05-19T01:11:02.842Z,87.54
2019-05-19T01:13:30.331Z,87.68
2019-05-19T01:15:57.947Z,87.30
2019-05-19T01:18:25.135Z,86.84
2019-05-19T01:20:52.342Z,87.20
2019-05-19T01:23:19.708Z,87.77
2019-05-19T01:25:47.452Z,87.77
2019-05-19T01:28:14.855Z,87.89
2019-05-19T01:30:42.931Z,87.94
2019-05-19T01:33:10.339Z,87.72
2019-05-19T01:35:38.151Z,87.99
2019-05-19T01:38:05.369Z,87.96
2019-05-19T01:40:32.656Z,87.99
2019-05-19T01:43:00.063Z,88.30
2019-05-19T01:45:28.286Z,87.83
2019-05-19T01:47:55.701Z,87.83
2019-05-19T01:50:23.200Z,87.85
2019-05-19T01:52:50.908Z,87.93
2019-05-19T01:55:19.068Z,87.75
2019-05-19T01:57:46.198Z,87.75
2019-05-19T02:00:14.175Z,88.12
2019-05-19T02:02:41.262Z,88.20
2019-05-19T02:05:08.898Z,88.20
2019-05-19T02:07:36.333Z,88.09
2019-05-19T02:10:08.807Z,87.84
2019-05-19T02:12:38.367Z,87.37
2019-05-19T02:15:06.344Z,87.37
2019-05-19T02:17:33.925Z,87.09
2019-05-19T02:20:01.100Z,87.09
2019-05-19T02:22:28.446Z,87.00
2019-05-19T02:24:55.456Z,86.94
2019-05-19T02:27:22.996Z,87.02
2019-05-19T02:29:50.375Z,86.82
2019-05-19T02:32:17.628Z,87.03
2019-05-19T02:34:45.111Z,87.20
2019-05-19T02:37:12.362Z,87.23
2019-05-19T02:39:39.821Z,87.17
2019-05-19T02:42:08.163Z,87.12
2019-05-19T02:44:57.576Z,87.72
2019-05-19T02:47:26.128Z,87.86
2019-05-19T02:49:54.717Z,87.86
2019-05-19T02:52:22.447Z,88.20
2019-05-19T02:54:50.637Z,88.24
2019-05-19T02:57:18.273Z,88.23
2019-05-19T02:59:45.902Z,88.12
2019-05-19T03:02:14.579Z,87.94
2019-05-19T03:04:41.844Z,88.21
2019-05-19T03:07:09.596Z,87.91
2019-05-19T03:09:37.196Z,87.88
2019-05-19T03:12:04.257Z,88.13
2019-05-19T03:14:31.968Z,87.94
2019-05-19T03:16:59.092Z,87.87
2019-05-19T03:19:26.138Z,87.87
2019-05-19T03:21:54.304Z,88.24
2019-05-19T03:24:21.436Z,88.24
2019-05-19T03:26:50.040Z,87.90
2019-05-19T03:29:19.955Z,87.88
2019-05-19T03:31:47.325Z,87.84
2019-05-19T03:34:15.697Z,88.04
2019-05-19T03:36:42.734Z,88.02
2019-05-19T03:39:10.242Z,88.08
2019-05-19T03:41:37.582Z,88.43
2019-05-19T03:44:04.880Z,88.36
2019-05-19T03:46:32.006Z,88.04
2019-05-19T03:48:59.052Z,88.27
2019-05-19T03:51:30.671Z,88.39
2019-05-19T03:53:56.900Z,88.69
2019-05-19T03:56:23.912Z,89.14
2019-05-19T03:58:51.419Z,88.98
2019-05-19T04:01:18.560Z,88.90
2019-05-19T04:03:45.820Z,88.55
2019-05-19T04:06:13.238Z,88.75
2019-05-19T04:08:40.728Z,88.96
2019-05-19T04:11:07.931Z,88.77
2019-05-19T04:13:35.134Z,88.75
2019-05-19T04:16:02.423Z,89.11
2019-05-19T04:18:29.587Z,89.11
2019-05-19T04:20:56.897Z,89.42
2019-05-19T04:23:23.835Z,88.42
2019-05-19T04:25:51.234Z,89.15
2019-05-19T04:28:18.356Z,87.61
2019-05-19T04:30:45.531Z,87.34
2019-05-19T04:33:12.577Z,87.88
2019-05-19T04:35:39.488Z,88.40
2019-05-19T04:38:06.747Z,88.11
2019-05-19T04:40:34.876Z,87.42
2019-05-19T04:43:02.073Z,87.52
2019-05-19T04:45:28.969Z,87.61
2019-05-19T04:47:55.891Z,87.28
2019-05-19T04:50:23.148Z,86.46
2019-05-19T04:52:50.560Z,86.42
2019-05-19T04:55:17.734Z,86.41
2019-05-19T04:57:44.751Z,86.92
2019-05-19T05:00:12.810Z,86.24
2019-05-19T05:02:39.830Z,86.42
2019-05-19T05:05:07.244Z,86.21
2019-05-19T05:07:34.354Z,86.35
2019-05-19T05:10:01.568Z,86.58
2019-05-19T05:12:29.601Z,86.51
2019-05-19T05:14:57.382Z,85.86
2019-05-19T05:17:24.599Z,85.18
2019-05-19T05:19:51.846Z,85.96
2019-05-19T05:22:21.961Z,86.34
2019-05-19T05:24:47.992Z,85.89
2019-05-19T05:27:14.989Z,86.89
2019-05-19T05:29:42.371Z,85.42
2019-05-19T05:32:09.661Z,85.55
2019-05-19T05:34:36.671Z,84.79
2019-05-19T05:37:03.732Z,84.66
2019-05-19T05:39:30.749Z,84.89
2019-05-19T05:41:57.659Z,84.75
2019-05-19T05:44:24.687Z,84.31
2019-05-19T05:46:54.106Z,83.63
2019-05-19T05:49:21.718Z,83.19
2019-05-19T05:51:49.041Z,81.84
2019-05-19T05:54:16.317Z,80.89
2019-05-19T05:56:43.343Z,80.39
2019-05-19T05:59:10.493Z,80.70
2019-05-19T06:01:37.380Z,80.86
2019-05-19T06:04:04.897Z,78.94
2019-05-19T06:06:32.420Z,77.13
2019-05-19T06:08:59.567Z,78.22
2019-05-19T06:11:26.567Z,78.23
2019-05-19T06:13:53.528Z,77.59
2019-05-19T06:16:20.419Z,77.03
2019-05-19T06:18:47.688Z,76.31
2019-05-19T06:21:14.699Z,77.12
2019-05-19T06:23:42.072Z,76.34
2019-05-19T06:26:09.080Z,76.34
2019-05-19T06:28:36.026Z,73.91
2019-05-19T06:31:04.181Z,75.05
2019-05-19T06:33:31.098Z,75.97
2019-05-19T06:35:58.508Z,76.53
2019-05-19T06:38:25.535Z,73.79
2019-05-19T06:40:53.029Z,73.60
2019-05-19T06:43:20.027Z,73.50
2019-05-19T06:45:47.022Z,73.41
2019-05-19T06:48:14.343Z,72.22
2019-05-19T06:50:41.556Z,70.38
2019-05-19T06:53:13.905Z,72.73
2019-05-19T06:55:40.050Z,70.12
2019-05-19T06:58:07.583Z,70.00
2019-05-19T07:00:34.866Z,67.71
2019-05-19T07:03:02.097Z,70.12
2019-05-19T07:05:29.197Z,69.49
2019-05-19T07:07:56.395Z,70.77
2019-05-19T07:10:23.445Z,70.52
2019-05-19T07:12:50.591Z,69.09
2019-05-19T07:15:20.024Z,66.45
2019-05-19T07:17:47.239Z,68.54
2019-05-19T07:20:16.359Z,68.04
2019-05-19T07:22:43.713Z,68.55
2019-05-19T07:25:11.256Z,68.07
2019-05-19T07:27:38.283Z,67.12
2019-05-19T07:30:06.264Z,67.38
2019-05-19T07:32:33.969Z,67.93
2019-05-19T07:35:01.411Z,66.25
2019-05-19T07:37:29.648Z,65.65
2019-05-19T07:39:56.691Z,65.89
2019-05-19T07:42:23.616Z,65.69
2019-05-19T07:44:50.595Z,65.19
2019-05-19T07:47:17.751Z,65.37
2019-05-19T07:49:44.851Z,67.00
2019-05-19T07:52:12.146Z,66.34
2019-05-19T07:54:39.151Z,66.83
2019-05-19T07:57:06.552Z,67.45
2019-05-19T07:59:33.566Z,67.12
2019-05-19T08:02:00.816Z,67.09
2019-05-19T08:04:27.715Z,67.45
2019-05-19T08:06:55.034Z,67.82
2019-05-19T08:09:22.136Z,67.27
2019-05-19T08:11:49.650Z,67.05
2019-05-19T08:14:16.747Z,67.65
2019-05-19T08:16:43.741Z,66.50
2019-05-19T08:19:10.731Z,67.71
2019-05-19T08:21:38.110Z,67.63
2019-05-19T08:24:05.170Z,67.10
2019-05-19T08:26:32.405Z,65.98
2019-05-19T08:29:00.010Z,65.35
2019-05-19T08:31:27.100Z,65.66
2019-05-19T08:33:54.237Z,65.23
2019-05-19T08:36:21.181Z,65.49
2019-05-19T08:38:48.307Z,65.11
2019-05-19T08:41:15.607Z,65.38
2019-05-19T08:43:42.646Z,63.63
2019-05-19T08:46:09.860Z,64.21
2019-05-19T08:48:37.180Z,63.66
2019-05-19T08:51:04.221Z,62.88
2019-05-19T08:53:31.377Z,62.40
2019-05-19T08:55:58.237Z,60.02
2019-05-19T08:58:25.228Z,62.40
2019-05-19T09:00:52.435Z,61.74
2019-05-19T09:03:19.458Z,59.93
2019-05-19T09:05:48.001Z,61.46
2019-05-19T09:08:15.183Z,61.95
2019-05-19T09:10:42.949Z,61.71
2019-05-19T09:13:10.300Z,61.60
2019-05-19T09:15:38.286Z,62.25
2019-05-19T09:18:05.585Z,61.54
2019-05-19T09:20:35.534Z,60.05
2019-05-19T09:23:02.673Z,60.10
2019-05-19T09:25:29.564Z,60.44
2019-05-19T09:27:56.993Z,60.01
2019-05-19T09:30:24.404Z,61.57
2019-05-19T09:32:51.327Z,60.51
2019-05-19T09:35:21.219Z,60.44
2019-05-19T09:37:48.210Z,60.54
2019-05-19T09:40:15.952Z,59.15
2019-05-19T09:42:43.058Z,59.06
2019-05-19T09:45:10.800Z,59.29
2019-05-19T09:47:39.299Z,60.10
2019-05-19T09:50:07.295Z,59.76
2019-05-19T09:52:34.331Z,59.84
2019-05-19T09:55:02.039Z,59.09
2019-05-19T09:57:29.706Z,59.85
2019-05-19T09:59:57.244Z,59.29
2019-05-19T10:02:24.366Z,59.10
2019-05-19T10:04:51.333Z,60.84
2019-05-19T10:07:18.444Z,59.27
2019-05-19T10:09:57.097Z,58.03
2019-05-19T10:12:24.529Z,59.59
2019-05-19T10:14:52.030Z,60.47
2019-05-19T10:17:19.354Z,62.64
2019-05-19T10:19:46.834Z,60.90
2019-05-19T10:22:14.223Z,63.07
2019-05-19T10:24:56.354Z,61.59
2019-05-19T10:27:10.953Z,61.88
2019-05-19T10:29:38.215Z,62.23
2019-05-19T10:32:05.420Z,62.18
2019-05-19T10:34:32.807Z,61.75
2019-05-19T10:37:00.099Z,61.99
2019-05-19T10:39:27.043Z,61.25
2019-05-19T10:41:54.223Z,61.73
2019-05-19T10:44:21.450Z,59.86
2019-05-19T10:46:48.510Z,59.65
2019-05-19T10:49:15.414Z,59.59
2019-05-19T10:51:42.953Z,60.06
2019-05-19T10:54:09.949Z,59.26
2019-05-19T10:56:36.862Z,59.66
2019-05-19T10:59:04.187Z,59.13
2019-05-19T11:01:31.236Z,60.64
2019-05-19T11:03:58.498Z,59.46
2019-05-19T11:06:25.614Z,61.54
2019-05-19T11:08:52.634Z,61.14
2019-05-19T11:11:19.849Z,59.71
2019-05-19T11:13:46.968Z,59.47
2019-05-19T11:16:14.215Z,58.90
2019-05-19T11:18:41.962Z,60.11
2019-05-19T11:21:09.028Z,60.63
2019-05-19T11:23:36.039Z,59.61
2019-05-19T11:26:03.353Z,58.62
2019-05-19T11:28:30.476Z,59.04
2019-05-19T11:30:57.499Z,59.37
2019-05-19T11:33:24.450Z,59.53
2019-05-19T11:35:51.447Z,60.05
2019-05-19T11:38:18.567Z,60.59
2019-05-19T11:40:45.787Z,60.76
2019-05-19T11:43:12.704Z,61.30
2019-05-19T11:45:40.043Z,62.21
2019-05-19T11:48:07.088Z,64.10
2019-05-19T11:50:34.076Z,64.93
2019-05-19T11:53:01.037Z,63.57
2019-05-19T11:55:27.944Z,61.04
2019-05-19T11:57:55.195Z,63.07
2019-05-19T12:00:22.342Z,63.77
2019-05-19T12:02:49.539Z,61.86
2019-05-19T12:05:17.665Z,64.33
2019-05-19T12:07:44.627Z,64.51
2019-05-19T12:10:12.092Z,66.00
2019-05-19T12:12:39.486Z,67.11
2019-05-19T12:15:07.597Z,68.71
2019-05-19T12:17:34.665Z,67.62
2019-05-19T12:20:02.231Z,68.60
2019-05-19T12:22:29.023Z,67.79
2019-05-19T12:24:56.487Z,68.96
2019-05-19T12:27:23.759Z,70.00
2019-05-19T12:29:50.772Z,70.03
2019-05-19T12:32:17.976Z,67.49
2019-05-19T12:34:44.887Z,68.59
2019-05-19T12:37:12.035Z,66.71
2019-05-19T12:39:39.090Z,68.60
2019-05-19T12:42:06.739Z,67.04
2019-05-19T12:44:33.755Z,67.40
2019-05-19T12:47:00.945Z,67.21
2019-05-19T12:49:28.055Z,67.87
2019-05-19T12:51:55.126Z,67.66
2019-05-19T12:54:22.182Z,67.41
2019-05-19T12:56:49.315Z,68.23
2019-05-19T12:59:16.275Z,68.93
2019-05-19T13:01:43.416Z,66.25
2019-05-19T13:04:10.864Z,66.37
2019-05-19T13:06:37.977Z,67.33
2019-05-19T13:09:05.392Z,68.28
2019-05-19T13:11:32.414Z,66.41
2019-05-19T13:13:59.348Z,66.69
2019-05-19T13:16:26.297Z,66.47
2019-05-19T13:18:53.531Z,65.80
2019-05-19T13:21:20.752Z,65.87
2019-05-19T13:23:48.091Z,66.08
2019-05-19T13:26:15.127Z,65.95
2019-05-19T13:28:42.068Z,66.62
2019-05-19T13:31:09.079Z,66.98
2019-05-19T13:33:36.048Z,68.17
2019-05-19T13:36:03.276Z,68.48
2019-05-19T13:38:30.490Z,67.73
2019-05-19T13:40:57.496Z,67.77
2019-05-19T13:43:26.240Z,67.41
2019-05-19T13:45:54.008Z,67.24
2019-05-19T13:48:21.111Z,65.97
2019-05-19T13:50:48.135Z,65.66
2019-05-19T13:53:15.119Z,65.24
2019-05-19T13:55:42.219Z,66.38
2019-05-19T13:58:09.651Z,65.77
2019-05-19T14:00:36.785Z,65.32
2019-05-19T14:03:04.038Z,66.23
2019-05-19T14:05:31.033Z,65.60
2019-05-19T14:07:58.225Z,66.43
2019-05-19T14:10:25.316Z,65.70
2019-05-19T14:12:52.295Z,66.17
2019-05-19T14:15:19.588Z,64.51
2019-05-19T14:17:46.886Z,64.83
2019-05-19T14:20:14.588Z,64.59
2019-05-19T14:22:41.623Z,65.16
2019-05-19T14:25:09.765Z,65.59
2019-05-19T14:27:36.894Z,65.39
2019-05-19T14:30:06.060Z,65.61
2019-05-19T14:32:33.763Z,65.09
2019-05-19T14:35:00.736Z,66.37
2019-05-19T14:37:27.918Z,65.77
2019-05-19T14:39:54.946Z,66.42
2019-05-19T14:42:41.994Z,66.73
2019-05-19T14:45:10.215Z,65.17
2019-05-19T14:47:56.364Z,65.92
2019-05-19T14:50:24.536Z,65.40
2019-05-19T14:52:51.891Z,65.08
2019-05-19T14:55:19.317Z,65.41
2019-05-19T14:57:46.458Z,65.72
2019-05-19T15:00:16.696Z,66.28
2019-05-19T15:02:43.998Z,66.32
2019-05-19T15:05:11.963Z,65.46
2019-05-19T15:07:38.972Z,65.95
2019-05-19T15:10:07.204Z,65.78
2019-05-19T15:12:34.508Z,65.86
2019-05-19T15:15:04.071Z,64.37
2019-05-19T15:17:31.250Z,63.96
2019-05-19T15:19:58.706Z,65.12
2019-05-19T15:22:25.609Z,64.67
2019-05-19T15:24:52.954Z,64.23
2019-05-19T15:27:19.960Z,64.63
2019-05-19T15:29:47.149Z,65.67
2019-05-19T15:32:14.326Z,65.17
2019-05-19T15:34:41.606Z,65.08
2019-05-19T15:37:08.527Z,65.50
2019-05-19T15:39:35.914Z,65.30
2019-05-19T15:42:03.351Z,65.15
2019-05-19T15:44:30.435Z,65.61
2019-05-19T15:46:57.762Z,66.14
2019-05-19T15:49:24.777Z,65.77
2019-05-19T15:52:02.122Z,65.44
2019-05-19T15:54:20.591Z,65.20
2019-05-19T15:56:48.111Z,65.79
2019-05-19T15:59:15.516Z,65.64
2019-05-19T16:01:42.560Z,66.05
2019-05-19T16:04:09.631Z,66.23
2019-05-19T16:06:39.033Z,66.23
2019-05-19T16:09:06.378Z,66.53
2019-05-19T16:11:33.662Z,66.11
2019-05-19T16:14:00.656Z,66.57
2019-05-19T16:16:27.655Z,66.89
2019-05-19T16:18:54.952Z,66.85
2019-05-19T16:21:22.145Z,67.22
2019-05-19T16:23:49.422Z,67.17
2019-05-19T16:26:16.740Z,67.38
2019-05-19T16:28:43.602Z,67.65
2019-05-19T16:31:10.815Z,67.55
2019-05-19T16:33:37.883Z,67.75
2019-05-19T16:36:07.762Z,68.01
2019-05-19T16:38:33.981Z,67.33
2019-05-19T16:41:00.792Z,67.71
2019-05-19T16:43:27.654Z,68.04
2019-05-19T16:45:54.850Z,67.96
2019-05-19T16:48:23.485Z,67.95
2019-05-19T16:50:51.007Z,68.42
2019-05-19T16:53:18.019Z,68.37
2019-05-19T16:55:46.325Z,68.28
2019-05-19T16:58:21.051Z,68.15
2019-05-19T17:00:43.124Z,68.40
2019-05-19T17:03:10.026Z,68.77
2019-05-19T17:05:37.093Z,68.96
2019-05-19T17:08:04.303Z,69.00
2019-05-19T17:10:31.483Z,69.13
2019-05-19T17:12:58.892Z,69.41
2019-05-19T17:15:26.156Z,69.76
2019-05-19T17:17:53.269Z,69.83
2019-05-19T17:20:20.598Z,70.28
2019-05-19T17:22:47.507Z,70.44
2019-05-19T17:25:14.827Z,70.42
2019-05-19T17:27:41.820Z,69.93
2019-05-19T17:30:10.096Z,68.41
2019-05-19T17:32:37.402Z,69.02
2019-05-19T17:35:05.235Z,68.60
2019-05-19T17:37:32.176Z,68.48
2019-05-19T17:39:59.248Z,68.33
2019-05-19T17:42:26.420Z,68.92
2019-05-19T17:44:53.632Z,69.69
2019-05-19T17:47:21.186Z,69.90
2019-05-19T17:49:48.471Z,69.93
2019-05-19T17:52:15.986Z,69.66
2019-05-19T17:54:43.317Z,69.73
2019-05-19T17:57:10.664Z,70.20
2019-05-19T17:59:42.070Z,70.63
2019-05-19T18:02:08.996Z,70.76
2019-05-19T18:04:36.288Z,70.74
2019-05-19T18:07:03.799Z,70.46
2019-05-19T18:09:30.835Z,70.57
2019-05-19T18:11:57.648Z,70.70
2019-05-19T18:14:24.696Z,70.48
2019-05-19T18:16:51.623Z,70.63
2019-05-19T18:19:18.738Z,70.88
2019-05-19T18:21:46.121Z,70.95
2019-05-19T18:24:13.425Z,70.72
2019-05-19T18:26:40.776Z,70.98
2019-05-19T18:29:07.853Z,71.15
2019-05-19T18:31:34.963Z,71.26
2019-05-19T18:34:02.006Z,71.67
2019-05-19T18:36:29.156Z,71.77
2019-05-19T18:38:56.165Z,71.75
2019-05-19T18:41:23.444Z,71.79
2019-05-19T18:43:50.776Z,71.65
2019-05-19T18:46:18.223Z,71.34
2019-05-19T18:48:45.461Z,71.29
2019-05-19T18:51:12.849Z,71.84
2019-05-19T18:53:40.106Z,72.05
2019-05-19T18:56:07.154Z,72.07
2019-05-19T18:58:34.809Z,72.41
2019-05-19T19:01:02.358Z,72.31
2019-05-19T19:03:29.533Z,72.61
2019-05-19T19:05:56.467Z,72.51
2019-05-19T19:08:23.602Z,72.29
2019-05-19T19:10:50.669Z,72.47
2019-05-19T19:13:17.964Z,72.96
2019-05-19T19:15:45.064Z,73.07
2019-05-19T19:18:11.983Z,72.99
2019-05-19T19:20:39.286Z,73.24
2019-05-19T19:23:06.522Z,73.29
2019-05-19T19:25:33.822Z,73.78
2019-05-19T19:28:01.068Z,73.74
2019-05-19T19:30:28.067Z,73.78
2019-05-19T19:32:55.407Z,73.95
2019-05-19T19:35:22.541Z,74.13
2019-05-19T19:37:49.690Z,74.44
2019-05-19T19:40:28.210Z,74.27
2019-05-19T19:42:57.179Z,74.29
2019-05-19T19:45:24.526Z,74.48
2019-05-19T19:47:51.768Z,74.86
2019-05-19T19:50:19.092Z,74.93
2019-05-19T19:52:46.441Z,74.87
2019-05-19T19:55:13.471Z,74.89
2019-05-19T19:57:40.771Z,75.10
2019-05-19T20:00:17.905Z,75.26
2019-05-19T20:02:37.199Z,75.26
2019-05-19T20:05:04.857Z,75.45
2019-05-19T20:07:31.970Z,75.11
2019-05-19T20:10:00.062Z,75.07
2019-05-19T20:12:27.276Z,75.20
2019-05-19T20:14:54.621Z,75.76
2019-05-19T20:17:21.964Z,75.60
2019-05-19T20:19:49.138Z,75.78
2019-05-19T20:22:16.184Z,75.82
2019-05-19T20:24:43.413Z,75.82
2019-05-19T20:27:10.676Z,76.11
2019-05-19T20:29:38.162Z,75.88
2019-05-19T20:32:05.125Z,76.14
2019-05-19T20:34:32.497Z,76.05
2019-05-19T20:36:59.514Z,76.02
2019-05-19T20:39:26.645Z,76.66
2019-05-19T20:41:53.825Z,77.01
2019-05-19T20:44:20.850Z,77.34
2019-05-19T20:46:48.541Z,77.41
2019-05-19T20:49:15.792Z,77.49
2019-05-19T20:51:42.933Z,77.85
2019-05-19T20:54:10.242Z,78.11
2019-05-19T20:56:37.375Z,78.44
2019-05-19T20:59:04.383Z,78.33
2019-05-19T21:01:31.536Z,78.40
2019-05-19T21:03:58.629Z,78.50
2019-05-19T21:06:25.939Z,78.91
2019-05-19T21:08:53.105Z,79.09
2019-05-19T21:11:20.355Z,79.35
2019-05-19T21:13:47.456Z,79.44
2019-05-19T21:16:14.521Z,79.45
2019-05-19T21:18:41.523Z,79.44
2019-05-19T21:21:08.681Z,79.42
2019-05-19T21:23:36.047Z,79.34
2019-05-19T21:26:03.275Z,79.41
2019-05-19T21:28:30.542Z,79.43
2019-05-19T21:31:05.269Z,79.32
2019-05-19T21:33:26.491Z,79.56
2019-05-19T21:35:53.796Z,79.17
2019-05-19T21:38:21.141Z,79.13
2019-05-19T21:40:47.930Z,79.26
2019-05-19T21:43:15.105Z,79.46
2019-05-19T21:45:42.319Z,79.50
2019-05-19T21:48:09.450Z,79.34
2019-05-19T21:50:36.429Z,79.27
2019-05-19T21:53:06.380Z,79.31
2019-05-19T21:55:32.310Z,79.34
2019-05-19T21:57:59.243Z,79.54
2019-05-19T22:00:28.457Z,79.83
2019-05-19T22:02:55.662Z,79.92
2019-05-19T22:05:23.154Z,79.70
2019-05-19T22:07:59.068Z,79.86
2019-05-19T22:10:26.511Z,80.15
2019-05-19T22:12:53.324Z,80.21
2019-05-19T22:15:20.881Z,80.24
2019-05-19T22:17:47.968Z,80.34
2019-05-19T22:20:15.132Z,80.35
2019-05-19T22:22:42.310Z,80.53
2019-05-19T22:25:09.570Z,80.38
2019-05-19T22:27:36.653Z,80.41
2019-05-19T22:30:05.272Z,80.43
2019-05-19T22:32:32.337Z,80.71
2019-05-19T22:34:59.375Z,80.77
2019-05-19T22:37:26.277Z,80.93
2019-05-19T22:39:53.615Z,81.04
2019-05-19T22:42:20.960Z,81.13
2019-05-19T22:44:48.193Z,81.15
2019-05-19T22:47:15.256Z,81.16
2019-05-19T22:49:42.268Z,81.11
2019-05-19T22:52:09.435Z,81.18
2019-05-19T22:54:36.714Z,81.18
2019-05-19T22:57:04.172Z,80.99
2019-05-19T22:59:31.927Z,80.76
2019-05-19T23:01:58.887Z,80.95
2019-05-19T23:04:26.749Z,80.89
2019-05-19T23:06:53.798Z,80.70
2019-05-19T23:09:21.132Z,80.46
2019-05-19T23:11:48.128Z,80.31
2019-05-19T23:14:17.861Z,80.12
2019-05-19T23:16:47.026Z,80.23
2019-05-19T23:19:14.179Z,80.30
2019-05-19T23:21:41.562Z,80.56
2019-05-19T23:24:08.720Z,80.64
2019-05-19T23:26:35.726Z,80.87
2019-05-19T23:29:03.159Z,81.00
2019-05-19T23:31:31.293Z,81.10
2019-05-19T23:33:58.504Z,81.11
2019-05-19T23:36:25.778Z,81.25
2019-05-19T23:38:52.876Z,81.26
2019-05-19T23:41:19.835Z,81.34
2019-05-19T23:43:46.745Z,81.10
2019-05-19T23:46:13.650Z,80.94
2019-05-19T23:48:40.635Z,80.89
2019-05-19T23:51:07.717Z,81.03
2019-05-19T23:53:34.822Z,81.12
2019-05-19T23:56:02.104Z,81.39
2019-05-19T23:58:29.189Z,81.41
